createdAt,value
2022-11-29T12:13:17.874Z,101890.16
2022-11-29T12:15:45.041Z,101891.72
2022-11-29T12:18:17.645Z,101893.94
2022-11-29T12:20:55.745Z,101896.16
2022-11-29T12:23:31.410Z,101899.28
2022-11-29T12:26:48.573Z,101891.56
2022-11-29T12:29:15.982Z,101889.94
2022-11-29T12:32:16.519Z,101896.47
2022-11-29T12:35:18.963Z,101900.78
2022-11-29T12:37:53.597Z,101893.00
2022-11-29T12:40:28.111Z,101892.22
2022-11-29T12:43:06.254Z,101899.81
2022-11-29T12:45:48.859Z,101894.91
2022-11-29T12:48:30.498Z,101897.53
2022-11-29T12:51:23.622Z,101912.69
2022-11-29T12:53:58.885Z,101906.91
2022-11-29T12:56:27.953Z,101904.84
2022-11-29T12:59:16.841Z,101908.69
2022-11-29T13:01:58.466Z,101914.06
2022-11-29T13:04:58.207Z,101914.38
2022-11-29T13:07:38.410Z,101919.59
2022-11-29T13:10:24.580Z,101916.72
2022-11-29T13:12:57.056Z,101914.38
2022-11-29T13:15:45.547Z,101929.09
2022-11-29T13:18:26.324Z,101925.16
2022-11-29T13:21:01.824Z,101927.94
2022-11-29T13:23:45.657Z,101921.66
2022-11-29T13:26:22.338Z,101925.03
2022-11-29T13:28:49.022Z,101929.31
2022-11-29T13:31:16.453Z,101927.38
2022-11-29T13:33:53.541Z,101922.09
2022-11-29T13:36:52.338Z,101922.09
2022-11-29T13:39:42.499Z,101924.09
2022-11-29T13:42:54.326Z,101925.66
2022-11-29T13:45:30.385Z,101923.06
2022-11-29T13:48:04.918Z,101929.50
2022-11-29T13:50:44.702Z,101935.56
2022-11-29T13:53:18.069Z,101925.34
2022-11-29T13:56:08.132Z,101929.06
2022-11-29T13:58:41.479Z,101934.63
2022-11-29T14:01:12.417Z,101938.84
2022-11-29T14:03:45.064Z,101932.03
2022-11-29T14:06:22.213Z,101942.81
2022-11-29T14:09:17.754Z,101941.94
2022-11-29T14:12:22.378Z,101931.50
2022-11-29T14:14:54.421Z,101935.13
2022-11-29T14:17:38.259Z,101951.69
2022-11-29T14:20:22.617Z,101940.88
2022-11-29T14:23:06.712Z,101952.09
2022-11-29T14:25:51.736Z,101943.13
2022-11-29T14:28:22.227Z,101956.09
2022-11-29T14:31:01.599Z,101950.72
2022-11-29T14:33:46.684Z,101957.19
2022-11-29T14:36:18.948Z,101947.09
2022-11-29T14:39:09.770Z,101952.25
2022-11-29T14:41:45.235Z,101942.63
2022-11-29T14:44:19.019Z,101950.28
2022-11-29T14:46:46.852Z,101950.84
2022-11-29T14:49:24.977Z,101947.41
2022-11-29T14:52:24.625Z,101954.69
2022-11-29T14:54:56.272Z,101952.25
2022-11-29T14:57:47.885Z,101953.97
2022-11-29T15:00:27.273Z,101951.13
2022-11-29T15:03:18.387Z,101963.38
2022-11-29T15:06:08.196Z,101963.69
2022-11-29T15:08:57.910Z,101960.50
2022-11-29T15:12:18.633Z,101961.81
2022-11-29T15:15:00.984Z,101961.81
2022-11-29T15:17:30.621Z,101967.16
2022-11-29T15:20:31.853Z,101961.66
2022-11-29T15:23:01.023Z,101967.09
2022-11-29T15:25:32.112Z,101966.41
2022-11-29T15:28:04.953Z,101954.69
2022-11-29T15:30:38.266Z,101966.78
2022-11-29T15:33:07.393Z,101967.19
2022-11-29T15:35:35.087Z,101964.81
2022-11-29T15:38:02.204Z,101958.38
2022-11-29T15:40:38.966Z,101964.41
2022-11-29T15:43:14.949Z,101966.41
2022-11-29T15:45:50.442Z,101968.75
2022-11-29T15:48:22.187Z,101972.13
2022-11-29T15:51:10.651Z,101975.50
2022-11-29T15:54:13.247Z,101970.31
2022-11-29T15:56:43.960Z,101975.66
2022-11-29T15:59:31.498Z,101979.69
2022-11-29T16:02:01.653Z,101981.09
2022-11-29T16:04:28.739Z,101978.03
2022-11-29T16:06:55.550Z,101977.31
2022-11-29T16:09:42.950Z,101977.72
2022-11-29T16:12:13.152Z,101974.59
2022-11-29T16:15:00.163Z,101976.47
2022-11-29T16:17:29.086Z,101988.31
2022-11-29T16:20:25.370Z,101982.66
2022-11-29T16:23:15.129Z,101978.88
2022-11-29T16:26:14.908Z,101976.69
2022-11-29T16:28:47.990Z,101985.72
2022-11-29T16:31:23.518Z,101984.06
2022-11-29T16:33:51.938Z,101994.88
2022-11-29T16:36:26.737Z,101992.06
2022-11-29T16:39:01.482Z,101996.94
2022-11-29T16:41:36.280Z,101997.16
2022-11-29T16:44:07.274Z,101997.03
2022-11-29T16:49:43.809Z,102003.88
2022-11-29T16:52:36.171Z,102006.28
2022-11-29T16:55:04.214Z,102007.09
2022-11-29T16:57:33.447Z,102010.94
2022-11-29T17:00:33.402Z,102007.81
2022-11-29T17:03:07.364Z,102008.47
2022-11-29T17:05:33.885Z,102017.28
2022-11-29T17:08:00.423Z,102013.66
2022-11-29T17:10:29.759Z,102014.22
2022-11-29T17:12:56.191Z,102016.03
2022-11-29T17:15:25.692Z,102008.25
2022-11-29T17:17:53.366Z,102028.34
2022-11-29T17:20:27.003Z,102024.09
2022-11-29T17:22:57.150Z,102029.72
2022-11-29T17:25:24.878Z,102032.09
2022-11-29T17:27:53.446Z,102032.31
2022-11-29T17:30:19.899Z,102030.66
2022-11-29T17:32:46.351Z,102045.75
2022-11-29T17:35:31.627Z,102035.72
2022-11-29T17:37:58.724Z,102039.56
2022-11-29T17:40:25.387Z,102048.66
2022-11-29T17:42:51.883Z,102047.41
2022-11-29T17:45:18.325Z,102043.59
2022-11-29T17:47:44.742Z,102041.13
2022-11-29T17:50:11.576Z,102049.47
2022-11-29T17:52:39.736Z,102044.97
2022-11-29T17:55:08.864Z,102044.28
2022-11-29T17:57:35.710Z,102057.78
2022-11-29T18:00:06.225Z,102053.94
2022-11-29T18:02:32.721Z,102050.56
2022-11-29T18:05:01.269Z,102053.72
2022-11-29T18:07:27.742Z,102059.84
2022-11-29T18:09:54.206Z,102054.31
2022-11-29T18:12:22.483Z,102042.47
2022-11-29T18:14:50.857Z,102041.75
2022-11-29T18:17:17.276Z,102048.34
2022-11-29T18:19:43.934Z,102048.22
2022-11-29T18:22:10.682Z,102055.19
2022-11-29T18:24:37.150Z,102051.25
2022-11-29T18:27:03.664Z,102061.06
2022-11-29T18:29:35.952Z,102056.34
2022-11-29T18:32:04.977Z,102046.78
2022-11-29T18:34:31.408Z,102047.47
2022-11-29T18:36:57.928Z,102049.38
2022-11-29T18:39:25.032Z,102061.75
2022-11-29T18:41:51.553Z,102061.75
2022-11-29T18:44:19.951Z,102057.38
2022-11-29T18:46:46.525Z,102051.06
2022-11-29T18:49:14.937Z,102057.50
2022-11-29T18:51:44.277Z,102061.81
2022-11-29T18:54:11.088Z,102063.94
2022-11-29T18:56:38.573Z,102072.97
2022-11-29T18:59:10.434Z,102062.59
2022-11-29T19:01:41.192Z,102077.34
2022-11-29T19:04:13.084Z,102073.28
2022-11-29T19:06:40.247Z,102069.03
2022-11-29T19:09:11.160Z,102070.50
2022-11-29T19:11:37.685Z,102073.44
2022-11-29T19:14:06.440Z,102077.06
2022-11-29T19:16:35.028Z,102075.72
2022-11-29T19:19:01.696Z,102082.47
2022-11-29T19:21:31.700Z,102079.19
2022-11-29T19:24:05.171Z,102083.56
2022-11-29T19:26:34.533Z,102078.84
2022-11-29T19:29:01.491Z,102081.75
2022-11-29T19:31:28.530Z,102084.81
2022-11-29T19:33:55.965Z,102084.25
2022-11-29T19:36:29.179Z,102090.34
2022-11-29T19:38:56.553Z,102079.53
2022-11-29T19:41:26.968Z,102088.19
2022-11-29T19:43:54.073Z,102086.16
2022-11-29T19:46:23.902Z,102092.81
2022-11-29T19:48:52.749Z,102086.84
2022-11-29T19:51:20.912Z,102083.22
2022-11-29T19:54:08.306Z,102090.00
2022-11-29T19:56:36.412Z,102091.25
2022-11-29T19:59:09.094Z,102081.44
2022-11-29T20:01:41.766Z,102085.69
2022-11-29T20:04:12.434Z,102086.13
2022-11-29T20:06:39.078Z,102083.66
2022-11-29T20:09:07.661Z,102088.84
2022-11-29T20:11:34.151Z,102083.41
2022-11-29T20:14:03.492Z,102090.81
2022-11-29T20:16:31.134Z,102090.25
2022-11-29T20:18:59.102Z,102091.97
2022-11-29T20:21:29.132Z,102092.09
2022-11-29T20:24:02.371Z,102089.16
2022-11-29T20:26:31.311Z,102083.41
2022-11-29T20:28:58.268Z,102087.59
2022-11-29T20:31:26.939Z,102089.16
2022-11-29T20:33:54.490Z,102093.75
2022-11-29T20:36:45.250Z,102090.06
2022-11-29T20:39:48.734Z,102088.84
2022-11-29T20:42:45.978Z,102086.69
2022-11-29T20:45:16.218Z,102089.97
2022-11-29T20:48:14.198Z,102101.78
2022-11-29T20:50:43.273Z,102096.28
2022-11-29T20:53:41.043Z,102101.53
2022-11-29T20:56:08.938Z,102101.53
2022-11-29T20:58:35.948Z,102101.97
2022-11-29T21:01:02.909Z,102092.41
2022-11-29T21:03:30.061Z,102102.97
2022-11-29T21:05:57.610Z,102105.91
2022-11-29T21:08:26.906Z,102105.69
2022-11-29T21:10:53.789Z,102101.28
2022-11-29T21:13:21.443Z,102104.34
2022-11-29T21:15:48.305Z,102106.81
2022-11-29T21:18:26.217Z,102104.94
2022-11-29T21:21:03.217Z,102120.78
2022-11-29T21:23:58.773Z,102120.47
2022-11-29T21:26:31.804Z,102119.00
2022-11-29T21:29:14.996Z,102113.25
2022-11-29T21:31:41.702Z,102115.50
2022-11-29T21:34:08.863Z,102113.66
2022-11-29T21:36:36.621Z,102114.91
2022-11-29T21:39:05.444Z,102119.09
2022-11-29T21:41:32.218Z,102117.75
2022-11-29T21:44:06.826Z,102115.19
2022-11-29T21:46:34.281Z,102119.91
2022-11-29T21:49:00.746Z,102122.50
2022-11-29T21:51:27.166Z,102119.78
2022-11-29T21:53:53.683Z,102116.41
2022-11-29T21:56:20.086Z,102123.91
2022-11-29T21:58:46.517Z,102122.09
2022-11-29T22:01:18.566Z,102129.44
2022-11-29T22:03:45.408Z,102123.38
2022-11-29T22:06:14.939Z,102125.03
2022-11-29T22:08:42.011Z,102124.47
2022-11-29T22:11:10.469Z,102129.53
2022-11-29T22:13:57.961Z,102133.03
2022-11-29T22:16:24.800Z,102132.03
2022-11-29T22:18:51.412Z,102133.50
2022-11-29T22:21:17.934Z,102127.44
2022-11-29T22:23:44.340Z,102126.97
2022-11-29T22:26:10.757Z,102126.63
2022-11-29T22:28:37.269Z,102136.34
2022-11-29T22:31:06.158Z,102133.47
2022-11-29T22:33:34.384Z,102133.91
2022-11-29T22:36:12.074Z,102130.72
2022-11-29T22:38:39.414Z,102129.63
2022-11-29T22:41:07.868Z,102140.22
2022-11-29T22:43:34.889Z,102134.72
2022-11-29T22:46:09.547Z,102134.72
2022-11-29T22:48:38.896Z,102140.44
2022-11-29T22:51:14.082Z,102148.31
2022-11-29T22:53:42.693Z,102147.44
2022-11-29T22:56:10.864Z,102144.50
2022-11-29T22:58:37.870Z,102142.06
2022-11-29T23:01:09.853Z,102152.22
2022-11-29T23:03:54.245Z,102143.41
2022-11-29T23:06:26.051Z,102143.63
2022-11-29T23:08:54.629Z,102145.84
2022-11-29T23:11:26.350Z,102152.38
2022-11-29T23:13:53.297Z,102155.63
2022-11-29T23:16:22.195Z,102156.09
2022-11-29T23:18:49.052Z,102153.84
2022-11-29T23:21:20.357Z,102154.72
2022-11-29T23:23:49.205Z,102151.47
2022-11-29T23:26:22.338Z,102148.66
2022-11-29T23:28:49.101Z,102148.66
2022-11-29T23:31:16.193Z,102141.09
2022-11-29T23:33:42.907Z,102144.50
2022-11-29T23:36:10.161Z,102135.25
2022-11-29T23:38:38.175Z,102139.50
2022-11-29T23:41:05.973Z,102144.09
2022-11-29T23:43:34.549Z,102136.56
2022-11-29T23:46:05.892Z,102146.47
2022-11-29T23:48:32.391Z,102132.28
2022-11-29T23:51:00.647Z,102143.69
2022-11-29T23:53:27.242Z,102139.63
2022-11-29T23:56:05.315Z,102139.03
2022-11-29T23:58:32.552Z,102140.75
